ADDS TAF Board (Experimental) INFO Settings

IDs: Format: Expanded Condensed

KDTW - Detroit Metro/Wayne, MI, US

Issued at 1122 UTC 18 Apr 2015
Updated at: 1313 UTC 18 Apr 2015
Time1253Z 18/14Z 18/15Z 18/16Z 18/17Z 18/18Z 18/19Z 18/20Z 18/21Z 18/22Z 18/23Z 19/00Z 19/01Z 19/02Z
Type OBS PRVL PRVL PRVL PRVL PRVL PRVL PRVL PRVL PRVL PRVL PRVL PRVL PRVL
VIS 10 >6 >6 >6 >6 >6 >6 >6 >6 >6 >6 >6 >6 >6
CIG 85 -- -- -- -- -- -- -- -- -- -- -- -- --
Cover BKN SKC SCT SCT SKC SKC SKC SKC SKC SKC SKC SKC SKC SKC
FltCat VFR VFR VFR VFR VFR VFR VFR VFR VFR VFR VFR VFR VFR VFR
WX -- -- -- -- -- -- -- -- -- -- -- -- -- --
WDir 230 VRB 360 360 40 40 40 40 40 40 40 40 50 50
WSpd 3 3 9 9 11 11 11 11 11 11 11 11 8 8
WGst -- -- -- -- 18 18 18 18 18 18 18 18 -- --
R03/21
XWnd 1 VRB 4 4 -2 -2 -2 -2 -2 -2 -2 -2 -3 -3
XGst -- -- -- -- -3 -3 -3 -3 -3 -3 -3 -3 -- --
HWnd -3 VRB 8 8 11 11 11 11 11 11 11 11 7 7
HGst -- -- -- -- 18 18 18 18 18 18 18 18 -- --
R04/22
XWnd 1 VRB 4 4 -2 -2 -2 -2 -2 -2 -2 -2 -3 -3
XGst -- -- -- -- -3 -3 -3 -3 -3 -3 -3 -3 -- --
HWnd -3 VRB 8 8 11 11 11 11 11 11 11 11 7 7
HGst -- -- -- -- 18 18 18 18 18 18 18 18 -- --
R09/27
XWnd -2 VRB 9 9 8 8 8 8 8 8 8 8 5 5
XGst -- -- -- -- 14 14 14 14 14 14 14 14 -- --
HWnd -2 VRB 0 0 7 7 7 7 7 7 7 7 6 6
HGst -- -- -- -- 12 12 12 12 12 12 12 12 -- --

NOTE: TEMPO conditions in [brackets]. Keep in mind TEMPO conditions might be better (lower impact) than prevailing conditions.

Raw TAF
KDTW 181122Z 1812/1918 VRB03KT P6SM SKC
  FM181500 36009KT P6SM SCT090
  FM181700 04011G18KT P6SM SKC
  FM190100 05008KT P6SM SKC
  FM191200 09014KT P6SM BKN070


Raw METAR
KDTW 181253Z 23003KT 10SM BKN085 BKN240 16/07 A3005 RMK AO2 SLP174 T01560067
KDTW 181153Z 22004KT 10SM FEW070 BKN240 13/07 A3004 RMK AO2 SLP172 T01280067 10128 20089 53007
KDTW 181053Z 00000KT 10SM SCT240 11/06 A3003 RMK AO2 SLP167 T01060056

METAR Board
Radar Display
Forecast Discussion

TAF Board Legend

Potential Impact
Threat None Slight Moderate High
Visibility (sm) ≥5.1 5.1>X≥3 3>X≥1 <1
Ceiling (100 ft) ≥30.1 30.1>X≥10 10>X≥5 <5
Wind Speed (kt) <10 10≤X<20 20≤X<30 ≥30
Wind Gust (kt) <15 15≤X<25 25≤X<35 ≥35
Weather No Wx Reported VCTS,-TS,-FZRA,SN TS,FZRA +TS,+FZRA,+SN